createdAt,value
2022-11-29T00:01:04.859Z,100174.03
2022-11-29T00:03:31.919Z,100167.94
2022-11-29T00:06:08.509Z,100160.28
2022-11-29T00:08:36.298Z,100168.81
2022-11-29T00:11:07.719Z,100145.84
2022-11-29T00:13:34.405Z,100176.00
2022-11-29T00:16:05.356Z,100171.72
2022-11-29T00:18:31.973Z,100170.91
2022-11-29T00:20:58.893Z,100170.94
2022-11-29T00:23:26.121Z,100167.50
2022-11-29T00:25:52.750Z,100165.69
2022-11-29T00:28:19.273Z,100164.81
2022-11-29T00:30:45.856Z,100174.28
2022-11-29T00:33:12.402Z,100177.78
2022-11-29T00:35:38.957Z,100151.09
2022-11-29T00:38:05.484Z,100169.91
2022-11-29T00:40:32.065Z,100164.53
2022-11-29T00:42:58.550Z,100170.56
2022-11-29T00:45:25.033Z,100150.06
2022-11-29T00:47:51.542Z,100170.63
2022-11-29T00:50:18.053Z,100172.44
2022-11-29T00:52:44.639Z,100171.63
2022-11-29T00:55:11.114Z,100166.41
2022-11-29T00:57:37.664Z,100175.97
2022-11-29T01:00:04.849Z,100176.00
2022-11-29T01:02:31.474Z,100171.81
2022-11-29T01:04:58.064Z,100142.81
2022-11-29T01:07:24.629Z,100172.19
2022-11-29T01:09:51.279Z,100154.97
2022-11-29T01:12:17.806Z,100182.59
2022-11-29T01:14:44.839Z,100182.66
2022-11-29T01:17:11.625Z,100158.44
2022-11-29T01:19:38.941Z,100186.81
2022-11-29T01:22:05.627Z,100196.38
2022-11-29T01:24:32.194Z,100191.06
2022-11-29T01:26:58.684Z,100155.88
2022-11-29T01:29:25.294Z,100198.06
2022-11-29T01:31:51.805Z,100171.50
2022-11-29T01:34:18.393Z,100196.47
2022-11-29T01:36:44.939Z,100193.66
2022-11-29T01:39:11.469Z,100194.56
2022-11-29T01:41:38.079Z,100198.09
2022-11-29T01:44:13.430Z,100198.06
2022-11-29T01:46:42.443Z,100198.09
2022-11-29T01:49:15.302Z,100198.19
2022-11-29T01:51:50.365Z,100205.28
2022-11-29T01:54:17.604Z,100201.69
2022-11-29T01:56:47.073Z,100205.94
2022-11-29T01:59:18.843Z,100196.19
2022-11-29T02:01:45.496Z,100161.91
2022-11-29T02:04:12.271Z,100198.66
2022-11-29T02:06:39.764Z,100186.41
2022-11-29T02:09:18.905Z,100188.09
2022-11-29T02:12:02.911Z,100197.59
2022-11-29T02:14:47.382Z,100189.59
2022-11-29T02:17:51.105Z,100191.38
2022-11-29T02:20:42.548Z,100194.91
2022-11-29T02:23:43.287Z,100201.03
2022-11-29T02:26:38.702Z,100194.00
2022-11-29T02:29:39.294Z,100196.78
2022-11-29T02:32:49.541Z,100199.72
2022-11-29T02:35:16.078Z,100193.66
2022-11-29T02:38:00.175Z,100177.47
2022-11-29T02:40:26.710Z,100210.44
2022-11-29T02:43:14.821Z,100204.38
2022-11-29T02:46:00.672Z,100162.97
2022-11-29T02:48:42.477Z,100206.91
2022-11-29T02:51:20.959Z,100204.31
2022-11-29T02:53:57.948Z,100199.00
2022-11-29T02:56:37.551Z,100202.41
2022-11-29T02:59:20.622Z,100176.56
2022-11-29T03:02:02.001Z,100174.72
2022-11-29T03:04:38.029Z,100201.22
2022-11-29T03:07:20.498Z,100172.81
2022-11-29T03:10:21.593Z,100208.22
2022-11-29T03:12:51.300Z,100191.28
2022-11-29T03:15:33.010Z,100210.44
2022-11-29T03:18:14.749Z,100188.00
2022-11-29T03:20:50.138Z,100227.72
2022-11-29T03:23:20.031Z,100217.19
2022-11-29T03:25:56.656Z,100220.88
2022-11-29T03:28:23.321Z,100222.59
2022-11-29T03:31:19.012Z,100227.03
2022-11-29T03:34:18.094Z,100233.13
2022-11-29T03:36:44.586Z,100241.00
2022-11-29T03:39:33.224Z,100228.84
2022-11-29T03:42:03.379Z,100227.94
2022-11-29T03:45:04.978Z,100243.59
2022-11-29T03:47:40.089Z,100235.78
2022-11-29T03:50:13.312Z,100248.84
2022-11-29T03:52:42.566Z,100241.97
2022-11-29T03:55:29.376Z,100246.25
2022-11-29T03:58:21.736Z,100255.88
2022-11-29T04:00:48.257Z,100249.81
2022-11-29T04:03:45.594Z,100220.56
2022-11-29T04:06:36.987Z,100233.38
2022-11-29T04:09:21.519Z,100254.06
2022-11-29T04:12:16.081Z,100254.06
2022-11-29T04:15:19.482Z,100223.91
2022-11-29T04:18:15.554Z,100222.31
2022-11-29T04:21:26.686Z,100252.34
2022-11-29T04:24:00.136Z,100245.34
2022-11-29T04:26:44.916Z,100255.88
2022-11-29T04:29:17.241Z,100257.59
2022-11-29T04:32:15.067Z,100261.13
2022-11-29T04:35:02.726Z,100260.31
2022-11-29T04:38:04.522Z,100256.06
2022-11-29T04:40:56.017Z,100254.34
2022-11-29T04:43:40.775Z,100263.03
2022-11-29T04:46:07.257Z,100267.22
2022-11-29T04:48:52.658Z,100269.84
2022-11-29T04:51:49.200Z,100242.09
2022-11-29T04:54:25.812Z,100262.84
2022-11-29T04:57:21.201Z,100274.94
2022-11-29T04:59:57.488Z,100282.78
2022-11-29T05:02:32.378Z,100290.66
2022-11-29T05:05:04.753Z,100288.94
2022-11-29T05:07:54.976Z,100264.94
2022-11-29T05:10:31.964Z,100288.22
2022-11-29T05:13:20.412Z,100297.75
2022-11-29T05:16:15.237Z,100294.34
2022-11-29T05:18:47.433Z,100271.94
2022-11-29T05:21:25.054Z,100304.72
2022-11-29T05:24:07.758Z,100274.63
2022-11-29T05:26:47.909Z,100305.50
2022-11-29T05:29:24.542Z,100307.22
2022-11-29T05:32:25.570Z,100274.50
2022-11-29T05:35:23.112Z,100314.25
2022-11-29T05:37:53.028Z,100310.72
2022-11-29T05:40:44.423Z,100307.91
2022-11-29T05:43:36.150Z,100311.34
2022-11-29T05:46:18.666Z,100316.69
2022-11-29T05:49:22.958Z,100319.28
2022-11-29T05:52:09.245Z,100326.28
2022-11-29T05:54:56.456Z,100298.78
2022-11-29T05:57:41.140Z,100325.50
2022-11-29T06:00:11.743Z,100333.47
2022-11-29T06:02:56.352Z,100312.66
2022-11-29T06:05:49.093Z,100327.31
2022-11-29T06:08:29.897Z,100304.22
2022-11-29T06:11:16.694Z,100337.84
2022-11-29T06:14:08.048Z,100337.94
2022-11-29T06:16:34.639Z,100340.56
2022-11-29T06:19:32.326Z,100337.97
2022-11-29T06:22:20.987Z,100350.25
2022-11-29T06:25:16.841Z,100346.78
2022-11-29T06:27:59.093Z,100341.56
2022-11-29T06:31:02.203Z,100326.03
2022-11-29T06:33:43.698Z,100326.00
2022-11-29T06:36:14.748Z,100339.69
2022-11-29T06:38:41.961Z,100350.94
2022-11-29T06:41:14.543Z,100347.53
2022-11-29T06:43:41.421Z,100352.84
2022-11-29T06:46:32.824Z,100356.34
2022-11-29T06:49:03.960Z,100347.63
2022-11-29T06:51:40.654Z,100356.34
2022-11-29T06:54:25.218Z,100351.94
2022-11-29T06:57:06.283Z,100353.72
2022-11-29T06:59:37.912Z,100356.97
2022-11-29T07:02:22.629Z,100355.22
2022-11-29T07:05:07.750Z,100363.97
2022-11-29T07:07:35.197Z,100364.84
2022-11-29T07:10:06.657Z,100372.66
2022-11-29T07:12:36.346Z,100376.09
2022-11-29T07:15:03.307Z,100370.94
2022-11-29T07:17:48.813Z,100374.25
2022-11-29T07:20:39.813Z,100353.63
2022-11-29T07:23:50.913Z,100388.09
2022-11-29T07:26:41.477Z,100388.03
2022-11-29T07:29:19.718Z,100388.09
2022-11-29T07:32:01.823Z,100379.53
2022-11-29T07:34:54.826Z,100388.13
2022-11-29T07:37:34.903Z,100400.38
2022-11-29T07:40:18.199Z,100405.50
2022-11-29T07:42:50.886Z,100409.88
2022-11-29T07:45:36.109Z,100402.09
2022-11-29T07:48:02.810Z,100404.59
2022-11-29T07:50:30.693Z,100407.16
2022-11-29T07:52:57.736Z,100407.09
2022-11-29T07:55:25.962Z,100379.59
2022-11-29T07:57:53.509Z,100415.88
2022-11-29T08:00:20.981Z,100415.81
2022-11-29T08:02:49.121Z,100411.41
2022-11-29T08:05:16.055Z,100411.41
2022-11-29T08:07:42.837Z,100408.66
2022-11-29T08:10:15.616Z,100426.00
2022-11-29T08:12:47.583Z,100420.69
2022-11-29T08:15:14.697Z,100424.22
2022-11-29T08:17:41.310Z,100433.81
2022-11-29T08:20:09.347Z,100430.31
2022-11-29T08:22:36.036Z,100440.84
2022-11-29T08:25:03.044Z,100430.53
2022-11-29T08:27:29.670Z,100416.00
2022-11-29T08:29:56.190Z,100433.25
2022-11-29T08:32:22.899Z,100447.06
2022-11-29T08:34:49.530Z,100450.66
2022-11-29T08:37:16.072Z,100455.09
2022-11-29T08:39:43.108Z,100423.09
2022-11-29T08:42:09.986Z,100448.00
2022-11-29T08:44:36.782Z,100456.72
2022-11-29T08:47:22.147Z,100457.53
2022-11-29T08:50:04.167Z,100459.06
2022-11-29T08:52:55.018Z,100463.38
2022-11-29T08:55:23.080Z,100466.91
2022-11-29T08:57:51.183Z,100468.81
2022-11-29T09:00:19.377Z,100443.88
2022-11-29T09:02:45.950Z,100474.16
2022-11-29T09:05:12.606Z,100475.88
2022-11-29T09:07:39.382Z,100481.97
2022-11-29T09:10:08.460Z,100480.25
2022-11-29T09:12:36.104Z,100475.88
2022-11-29T09:15:05.312Z,100495.19
2022-11-29T09:17:31.872Z,100491.72
2022-11-29T09:19:58.463Z,100488.28
2022-11-29T09:22:25.020Z,100491.81
2022-11-29T09:24:51.809Z,100491.81
2022-11-29T09:27:18.385Z,100492.72
2022-11-29T09:29:44.872Z,100496.22
2022-11-29T09:32:11.529Z,100501.41
2022-11-29T09:34:38.065Z,100501.41
2022-11-29T09:37:05.250Z,100504.16
2022-11-29T09:39:31.955Z,100502.34
2022-11-29T09:42:27.274Z,100514.59
2022-11-29T09:45:18.540Z,100508.44
2022-11-29T09:48:31.025Z,100517.97
2022-11-29T09:51:24.218Z,100520.56
2022-11-29T09:54:13.714Z,100525.00
2022-11-29T09:56:58.796Z,100522.47
2022-11-29T09:59:28.104Z,100517.19
2022-11-29T10:02:04.714Z,100521.63
2022-11-29T10:04:40.169Z,100518.97
2022-11-29T10:07:33.458Z,100519.75
2022-11-29T10:10:07.115Z,100520.56
2022-11-29T10:12:46.964Z,100511.84
2022-11-29T10:15:22.113Z,100521.22
2022-11-29T10:17:55.022Z,100514.03
2022-11-29T10:20:27.429Z,100507.88
2022-11-29T10:23:26.198Z,100513.78
2022-11-29T10:25:55.745Z,100493.94
2022-11-29T10:28:26.421Z,100486.06
2022-11-29T10:30:53.953Z,100503.06
2022-11-29T10:33:21.853Z,100506.56
2022-11-29T10:35:51.122Z,100502.22
2022-11-29T10:38:33.011Z,100498.63
2022-11-29T10:41:14.810Z,100485.63
2022-11-29T10:43:43.036Z,100504.41
2022-11-29T10:46:20.413Z,100483.81
2022-11-29T10:48:47.198Z,100511.44
2022-11-29T10:51:17.246Z,100509.72
2022-11-29T10:53:45.539Z,100510.56
2022-11-29T10:56:35.665Z,100511.41
2022-11-29T10:59:06.302Z,100511.31
2022-11-29T11:01:38.343Z,100513.94
2022-11-29T11:04:09.905Z,100520.06
2022-11-29T11:06:51.470Z,100518.84
2022-11-29T11:09:27.870Z,100521.28
2022-11-29T11:11:57.872Z,100487.53
2022-11-29T11:14:28.845Z,100490.94
2022-11-29T11:16:55.657Z,100512.47
2022-11-29T11:19:27.846Z,100491.09
2022-11-29T11:22:02.882Z,100521.25
2022-11-29T11:24:33.490Z,100526.56
2022-11-29T11:27:00.633Z,100527.25
2022-11-29T11:29:33.082Z,100500.47
2022-11-29T11:32:00.699Z,100511.44
2022-11-29T11:34:34.591Z,100519.06
2022-11-29T11:37:16.481Z,100499.44
2022-11-29T11:39:45.420Z,100522.72
2022-11-29T11:42:37.691Z,100528.84
2022-11-29T11:45:13.280Z,100524.56
2022-11-29T11:47:45.308Z,100526.06
2022-11-29T11:50:16.909Z,100525.69
2022-11-29T11:52:50.737Z,100525.44
2022-11-29T11:55:17.478Z,100527.69
2022-11-29T11:57:44.278Z,100531.16
2022-11-29T12:03:53.572Z,100503.59
2022-11-29T12:06:28.947Z,100533.75
2022-11-29T12:09:06.803Z,100536.44
2022-11-29T12:12:00.394Z,100536.31
2022-11-29T12:15:07.579Z,100543.47
2022-11-29T12:17:49.273Z,100541.69
2022-11-29T12:20:39.604Z,100541.81
2022-11-29T12:23:09.335Z,100541.06
2022-11-29T12:25:58.528Z,100523.19
2022-11-29T12:28:40.504Z,100547.50
2022-11-29T12:31:25.600Z,100549.06
2022-11-29T12:34:22.231Z,100556.03
2022-11-29T12:37:08.019Z,100554.88
2022-11-29T12:39:46.250Z,100560.13
2022-11-29T12:42:41.676Z,100562.75
2022-11-29T12:45:18.318Z,100558.34
2022-11-29T12:48:13.631Z,100555.81
2022-11-29T12:51:04.876Z,100567.13
2022-11-29T12:53:43.480Z,100562.00
2022-11-29T12:56:34.674Z,100541.16
2022-11-29T12:59:16.552Z,100565.91
2022-11-29T13:01:58.287Z,100564.97
2022-11-29T13:04:38.170Z,100550.09
2022-11-29T13:07:12.988Z,100559.78
2022-11-29T13:09:57.013Z,100565.16
2022-11-29T13:12:39.732Z,100563.50
2022-11-29T13:15:06.398Z,100560.94
2022-11-29T13:17:41.273Z,100562.66
2022-11-29T13:20:25.312Z,100565.91
2022-11-29T13:22:55.050Z,100569.31
2022-11-29T13:25:28.063Z,100573.69
2022-11-29T13:27:58.715Z,100568.50
2022-11-29T13:30:26.088Z,100579.94
2022-11-29T13:33:25.091Z,100572.88
2022-11-29T13:36:00.598Z,100568.41
2022-11-29T13:38:36.001Z,100570.28
2022-11-29T13:41:28.279Z,100568.69
2022-11-29T13:44:02.830Z,100565.91
2022-11-29T13:46:41.224Z,100560.66
2022-11-29T13:49:23.717Z,100560.88
2022-11-29T13:52:04.931Z,100578.19
2022-11-29T13:54:34.073Z,100563.66
2022-11-29T13:57:10.364Z,100576.72
2022-11-29T13:59:45.766Z,100586.41
2022-11-29T14:02:32.025Z,100591.75
2022-11-29T14:04:58.836Z,100563.22
2022-11-29T14:07:25.508Z,100559.69
2022-11-29T14:10:01.301Z,100589.94
2022-11-29T14:12:35.867Z,100565.91
2022-11-29T14:15:14.449Z,100598.81
2022-11-29T14:17:53.500Z,100597.09
2022-11-29T14:20:28.129Z,100599.69
2022-11-29T14:23:07.662Z,100596.28
2022-11-29T14:25:52.623Z,100599.72
2022-11-29T14:28:22.459Z,100591.66
2022-11-29T14:30:49.894Z,100578.84
2022-11-29T14:33:47.509Z,100607.34
2022-11-29T14:36:30.004Z,100608.34
2022-11-29T14:39:30.536Z,100613.63
2022-11-29T14:42:16.923Z,100614.63
2022-11-29T14:44:56.013Z,100620.00
2022-11-29T14:47:31.439Z,100588.88
2022-11-29T14:50:01.151Z,100615.66
2022-11-29T14:52:31.637Z,100616.59
2022-11-29T14:55:29.716Z,100622.00
2022-11-29T14:58:06.155Z,100625.59
2022-11-29T15:00:37.754Z,100626.59
2022-11-29T15:03:16.738Z,100628.44
2022-11-29T15:05:48.757Z,100628.44
2022-11-29T15:08:37.271Z,100631.00
2022-11-29T15:11:27.497Z,100632.84
2022-11-29T15:14:23.217Z,100636.34
2022-11-29T15:16:58.511Z,100637.25
2022-11-29T15:19:27.965Z,100633.78
2022-11-29T15:22:21.110Z,100633.09
2022-11-29T15:24:54.607Z,100609.03
2022-11-29T15:27:22.077Z,100638.63
2022-11-29T15:29:48.706Z,100631.84
2022-11-29T15:32:26.398Z,100645.03
2022-11-29T15:34:55.561Z,100635.41
2022-11-29T15:37:26.226Z,100640.75
2022-11-29T15:40:03.495Z,100641.72
2022-11-29T15:42:41.874Z,100643.69
2022-11-29T15:45:36.843Z,100644.66
2022-11-29T15:48:24.254Z,100645.50
2022-11-29T15:51:16.014Z,100655.22
2022-11-29T15:54:12.874Z,100650.94
2022-11-29T15:56:51.953Z,100668.44
2022-11-29T15:59:30.470Z,100663.22
2022-11-29T16:02:00.317Z,100667.66
2022-11-29T16:04:27.252Z,100667.63
2022-11-29T16:06:55.439Z,100666.72
2022-11-29T16:09:43.491Z,100672.84
2022-11-29T16:12:14.158Z,100677.28
2022-11-29T16:14:56.890Z,100672.88
2022-11-29T16:17:41.469Z,100669.53
2022-11-29T16:20:13.769Z,100663.50
2022-11-29T16:22:40.411Z,100673.84
2022-11-29T16:25:16.157Z,100668.66
2022-11-29T16:27:43.214Z,100673.84
2022-11-29T16:30:24.726Z,100649.72
2022-11-29T16:33:00.229Z,100672.03
2022-11-29T16:35:29.384Z,100668.47
2022-11-29T16:37:56.324Z,100668.53
2022-11-29T16:40:27.178Z,100674.53
2022-11-29T16:43:23.620Z,100674.56
2022-11-29T16:46:30.276Z,100676.22
2022-11-29T16:48:59.003Z,100672.69
2022-11-29T16:51:39.898Z,100672.75
2022-11-29T16:54:22.192Z,100677.09
2022-11-29T16:56:50.435Z,100683.31
2022-11-29T16:59:26.738Z,100684.09
2022-11-29T17:01:55.099Z,100682.31
2022-11-29T17:04:24.836Z,100692.72
2022-11-29T17:06:56.132Z,100695.31
2022-11-29T17:09:28.369Z,100685.00
2022-11-29T17:11:56.175Z,100689.34
2022-11-29T17:14:23.119Z,100694.63
2022-11-29T17:16:49.814Z,100690.34
2022-11-29T17:19:17.269Z,100697.47
2022-11-29T17:21:44.190Z,100695.81
2022-11-29T17:24:13.973Z,100694.25
2022-11-29T17:26:41.545Z,100703.84
2022-11-29T17:29:10.376Z,100705.53
2022-11-29T17:31:37.062Z,100710.81
2022-11-29T17:34:04.254Z,100704.75
2022-11-29T17:36:31.357Z,100708.28
2022-11-29T17:39:01.845Z,100680.69
2022-11-29T17:41:29.437Z,100709.28
2022-11-29T17:43:57.368Z,100700.44
2022-11-29T17:46:27.097Z,100713.56
2022-11-29T17:48:54.924Z,100704.88
2022-11-29T17:54:11.107Z,100718.00
2022-11-29T17:56:37.934Z,100715.28
2022-11-29T17:59:05.334Z,100717.94
2022-11-29T18:01:34.651Z,100716.91
2022-11-29T18:04:03.137Z,100715.13
2022-11-29T18:06:35.883Z,100716.81
2022-11-29T18:09:04.325Z,100723.81
2022-11-29T18:11:41.664Z,100699.66
2022-11-29T18:14:15.411Z,100731.81
2022-11-29T18:16:42.391Z,100728.34
2022-11-29T18:19:12.771Z,100730.97
2022-11-29T18:21:39.672Z,100730.19
2022-11-29T18:24:07.148Z,100702.44
2022-11-29T18:26:35.189Z,100705.88
2022-11-29T18:29:02.157Z,100733.63
2022-11-29T18:31:31.463Z,100737.97
2022-11-29T18:34:00.352Z,100733.63
2022-11-29T18:36:29.981Z,100734.47
2022-11-29T18:39:01.615Z,100743.03
2022-11-29T18:41:29.920Z,100746.63
2022-11-29T18:44:07.200Z,100753.66
2022-11-29T18:46:36.554Z,100747.63
2022-11-29T18:49:05.909Z,100730.34
2022-11-29T18:51:33.527Z,100751.13
2022-11-29T18:54:01.032Z,100753.75
2022-11-29T18:56:30.141Z,100748.56
2022-11-29T18:59:02.037Z,100747.06
2022-11-29T19:01:30.761Z,100735.19
2022-11-29T19:03:59.447Z,100761.06
2022-11-29T19:06:38.602Z,100754.97
2022-11-29T19:09:07.957Z,100758.50
2022-11-29T19:11:34.954Z,100761.13
2022-11-29T19:14:04.797Z,100759.50
2022-11-29T19:16:33.224Z,100756.94
2022-11-29T19:19:01.110Z,100766.53
2022-11-29T19:21:29.904Z,100740.56
2022-11-29T19:23:58.833Z,100772.75
2022-11-29T19:26:27.193Z,100767.59
2022-11-29T19:28:54.096Z,100762.44
2022-11-29T19:31:24.809Z,100773.81
2022-11-29T19:33:52.635Z,100772.97
2022-11-29T19:36:23.516Z,100745.34
2022-11-29T19:38:53.915Z,100769.50
2022-11-29T19:41:26.640Z,100771.19
2022-11-29T19:43:54.051Z,100772.06
2022-11-29T19:46:23.464Z,100779.06
2022-11-29T19:48:53.159Z,100745.19
2022-11-29T19:51:21.082Z,100777.84
2022-11-29T19:53:47.695Z,100777.84
2022-11-29T19:56:17.127Z,100773.56
2022-11-29T19:58:44.483Z,100776.19
2022-11-29T20:01:18.713Z,100775.34
2022-11-29T20:03:45.623Z,100777.03
2022-11-29T20:06:13.725Z,100769.09
2022-11-29T20:08:41.111Z,100774.34
2022-11-29T20:11:15.778Z,100776.25
2022-11-29T20:13:44.009Z,100777.09
2022-11-29T20:16:17.142Z,100782.44
2022-11-29T20:18:50.417Z,100747.97
2022-11-29T20:21:18.699Z,100786.00
2022-11-29T20:23:45.223Z,100762.56
2022-11-29T20:26:17.734Z,100779.88
2022-11-29T20:28:45.070Z,100779.03
2022-11-29T20:31:15.387Z,100780.81
2022-11-29T20:33:43.427Z,100773.94
2022-11-29T20:36:29.133Z,100787.94
2022-11-29T20:39:05.757Z,100783.66
2022-11-29T20:41:48.327Z,100792.41
2022-11-29T20:44:20.467Z,100778.59
2022-11-29T20:46:47.264Z,100801.03
2022-11-29T20:49:15.167Z,100781.16
2022-11-29T20:51:51.478Z,100799.31
2022-11-29T20:54:19.427Z,100810.66
2022-11-29T20:56:45.965Z,100805.41
2022-11-29T20:59:12.497Z,100813.28
2022-11-29T21:01:39.193Z,100806.38
2022-11-29T21:04:05.826Z,100804.63
2022-11-29T21:06:36.117Z,100802.88
2022-11-29T21:09:02.891Z,100812.50
2022-11-29T21:11:29.818Z,100807.28
2022-11-29T21:13:57.145Z,100803.75
2022-11-29T21:16:28.393Z,100809.88
2022-11-29T21:18:58.440Z,100816.00
2022-11-29T21:21:33.330Z,100808.03
2022-11-29T21:24:06.743Z,100811.50
2022-11-29T21:26:41.981Z,100816.84
2022-11-29T21:29:17.316Z,100809.88
2022-11-29T21:31:45.613Z,100784.84
2022-11-29T21:34:12.367Z,100808.41
2022-11-29T21:36:39.549Z,100809.22
2022-11-29T21:39:07.784Z,100810.16
2022-11-29T21:41:34.474Z,100807.56
2022-11-29T21:44:08.726Z,100811.09
2022-11-29T21:46:35.882Z,100811.09
2022-11-29T21:49:02.612Z,100780.84
2022-11-29T21:51:29.212Z,100782.59
2022-11-29T21:53:55.916Z,100805.00
2022-11-29T21:56:22.543Z,100805.03
2022-11-29T21:58:49.091Z,100799.75
2022-11-29T22:01:18.488Z,100802.25
2022-11-29T22:03:45.796Z,100786.81
2022-11-29T22:06:14.998Z,100812.78
2022-11-29T22:08:42.263Z,100810.28
2022-11-29T22:11:11.787Z,100814.66
2022-11-29T22:13:59.910Z,100811.22
2022-11-29T22:16:26.870Z,100806.13
2022-11-29T22:18:53.704Z,100811.38
2022-11-29T22:21:20.826Z,100814.09
2022-11-29T22:23:48.152Z,100810.56
2022-11-29T22:26:14.660Z,100803.63
2022-11-29T22:28:41.170Z,100808.03
2022-11-29T22:31:12.551Z,100811.56
2022-11-29T22:33:39.714Z,100809.88
2022-11-29T22:36:08.968Z,100806.44
2022-11-29T22:38:35.817Z,100804.78
2022-11-29T22:41:04.722Z,100809.94
2022-11-29T22:43:32.127Z,100815.94
2022-11-29T22:46:05.694Z,100815.03
2022-11-29T22:48:38.182Z,100818.50
2022-11-29T22:51:12.795Z,100817.59
2022-11-29T22:53:41.577Z,100822.88
2022-11-29T22:56:11.039Z,100811.59
2022-11-29T22:58:38.117Z,100804.66
2022-11-29T23:01:14.819Z,100808.94
2022-11-29T23:03:48.177Z,100813.31
2022-11-29T23:06:17.858Z,100822.81
2022-11-29T23:08:45.836Z,100825.28
2022-11-29T23:11:15.794Z,100832.19
2022-11-29T23:13:43.871Z,100801.84
2022-11-29T23:16:13.284Z,100808.81
2022-11-29T23:18:42.238Z,100810.53
2022-11-29T23:21:11.885Z,100813.88
2022-11-29T23:23:38.725Z,100824.25
2022-11-29T23:26:06.801Z,100827.72
2022-11-29T23:28:34.711Z,100833.91
2022-11-29T23:31:01.946Z,100835.66
2022-11-29T23:33:28.642Z,100833.06
2022-11-29T23:36:03.037Z,100840.91
2022-11-29T23:38:30.131Z,100838.25
2022-11-29T23:40:56.991Z,100840.94
2022-11-29T23:43:23.673Z,100832.19
2022-11-29T23:45:50.685Z,100826.13
2022-11-29T23:48:17.492Z,100826.91
2022-11-29T23:50:44.010Z,100831.25
2022-11-29T23:53:15.318Z,100806.00
2022-11-29T23:55:42.327Z,100824.94
2022-11-29T23:58:10.183Z,100822.25
